createdAt,value
2022-11-10T04:01:21.417Z,10.50
2022-11-10T04:03:51.536Z,10.40
2022-11-10T04:06:37.857Z,10.30
2022-11-10T04:09:06.359Z,10.30
2022-11-10T04:11:53.535Z,10.40
2022-11-10T04:14:39.375Z,10.20
2022-11-10T04:17:06.642Z,10.20
2022-11-10T04:19:33.749Z,10.30
2022-11-10T04:22:01.169Z,10.40
2022-11-10T04:24:28.322Z,10.40
2022-11-10T04:26:55.470Z,10.50
2022-11-10T04:29:22.655Z,10.50
2022-11-10T04:31:49.808Z,10.50
2022-11-10T04:34:16.992Z,10.60
2022-11-10T04:36:45.108Z,10.60
2022-11-10T04:39:12.676Z,10.50
2022-11-10T04:41:39.886Z,10.40
2022-11-10T04:44:07.174Z,10.40
2022-11-10T04:46:39.326Z,10.40
2022-11-10T04:49:07.444Z,10.50
2022-11-10T04:51:37.088Z,10.50
2022-11-10T04:54:06.250Z,10.50
2022-11-10T04:56:34.800Z,10.60
2022-11-10T04:59:02.435Z,10.60
2022-11-10T05:01:29.663Z,10.60
2022-11-10T05:03:57.112Z,10.50
2022-11-10T05:06:24.638Z,10.20
2022-11-10T05:08:52.266Z,10.20
2022-11-10T05:11:19.560Z,10.40
2022-11-10T05:13:47.006Z,10.40
2022-11-10T05:16:14.198Z,10.30
2022-11-10T05:18:42.087Z,10.20
2022-11-10T05:21:09.434Z,10.30
2022-11-10T05:23:39.709Z,10.30
2022-11-10T05:26:12.290Z,10.20
2022-11-10T05:28:41.985Z,10.20
2022-11-10T05:31:09.979Z,10.10
2022-11-10T05:33:38.123Z,10.00
2022-11-10T05:36:06.945Z,10.00
2022-11-10T05:38:38.830Z,10.00
2022-11-10T05:41:07.606Z,10.10
2022-11-10T05:43:34.760Z,10.20
2022-11-10T05:46:02.306Z,10.30
2022-11-10T05:48:29.419Z,10.30
2022-11-10T05:50:56.627Z,10.30
2022-11-10T05:53:24.191Z,10.20
2022-11-10T05:55:52.114Z,10.20
2022-11-10T05:58:19.302Z,10.30
2022-11-10T06:00:46.508Z,10.30
2022-11-10T06:03:18.902Z,10.30
2022-11-10T06:05:46.692Z,10.30
2022-11-10T06:08:14.151Z,10.30
2022-11-10T06:10:41.620Z,10.30
2022-11-10T06:13:08.921Z,10.30
2022-11-10T06:15:36.537Z,10.30
2022-11-10T06:18:03.839Z,10.30
2022-11-10T06:20:31.003Z,10.40
2022-11-10T06:23:03.329Z,10.40
2022-11-10T06:25:32.976Z,10.50
2022-11-10T06:28:00.151Z,10.40
2022-11-10T06:30:28.852Z,10.40
2022-11-10T06:32:56.071Z,10.50
2022-11-10T06:35:23.863Z,10.40
2022-11-10T06:38:01.171Z,10.40
2022-11-10T06:40:29.510Z,10.40
2022-11-10T06:42:57.332Z,10.40
2022-11-10T06:45:25.531Z,10.30
2022-11-10T06:48:01.525Z,10.20
2022-11-10T06:50:28.686Z,10.10
2022-11-10T06:52:57.211Z,10.10
2022-11-10T06:55:25.143Z,10.00
2022-11-10T06:57:52.375Z,10.00
2022-11-10T07:00:20.044Z,10.00
2022-11-10T07:02:47.196Z,10.00
2022-11-10T07:05:15.415Z,9.90
2022-11-10T07:07:42.618Z,10.00
2022-11-10T07:10:09.982Z,9.90
2022-11-10T07:12:37.166Z,9.90
2022-11-10T07:15:05.593Z,10.00
2022-11-10T07:17:32.706Z,10.00
2022-11-10T07:19:59.860Z,10.00
2022-11-10T07:22:26.988Z,10.00
2022-11-10T07:24:54.139Z,10.00
2022-11-10T07:27:21.284Z,10.10
2022-11-10T07:29:48.486Z,10.10
2022-11-10T07:32:15.645Z,10.00
2022-11-10T07:34:42.905Z,10.00
2022-11-10T07:37:10.115Z,10.00
2022-11-10T07:39:37.253Z,10.00
2022-11-10T07:42:04.453Z,10.10
2022-11-10T07:44:31.780Z,10.10
2022-11-10T07:46:58.981Z,10.20
2022-11-10T07:49:26.174Z,10.20
2022-11-10T07:51:53.350Z,10.20
2022-11-10T07:54:21.109Z,10.20
2022-11-10T07:56:48.267Z,10.30
2022-11-10T07:59:15.446Z,10.30
2022-11-10T08:01:42.657Z,10.40
2022-11-10T08:04:09.847Z,10.40
2022-11-10T08:06:37.722Z,10.50
2022-11-10T08:09:04.876Z,10.50
2022-11-10T08:11:32.001Z,10.60
2022-11-10T08:13:59.196Z,10.80
2022-11-10T08:16:26.364Z,11.00
2022-11-10T08:18:53.565Z,11.10
2022-11-10T08:21:20.719Z,11.20
2022-11-10T08:23:47.903Z,11.40
2022-11-10T08:26:17.705Z,11.50
2022-11-10T08:28:45.082Z,11.60
2022-11-10T08:31:12.197Z,11.70
2022-11-10T08:33:39.405Z,11.70
2022-11-10T08:36:06.928Z,11.60
2022-11-10T08:38:34.080Z,11.60
2022-11-10T08:41:01.295Z,11.60
2022-11-10T08:43:28.528Z,11.60
2022-11-10T08:45:59.200Z,11.60
2022-11-10T08:48:26.351Z,11.60
2022-11-10T08:50:53.812Z,11.60
2022-11-10T08:53:23.866Z,11.70
2022-11-10T08:55:53.139Z,11.70
2022-11-10T08:58:23.271Z,11.80
2022-11-10T09:00:51.383Z,11.90
2022-11-10T09:03:24.818Z,11.90
2022-11-10T09:05:58.071Z,12.00
2022-11-10T09:08:26.016Z,12.00
2022-11-10T09:10:53.230Z,12.10
2022-11-10T09:13:29.564Z,12.20
2022-11-10T09:16:04.589Z,12.20
2022-11-10T09:18:31.909Z,12.20
2022-11-10T09:20:59.328Z,12.30
2022-11-10T09:23:27.053Z,12.50
2022-11-10T09:25:56.302Z,12.50
2022-11-10T09:28:24.146Z,12.60
2022-11-10T09:30:52.396Z,12.60
2022-11-10T09:33:20.658Z,12.50
2022-11-10T09:35:48.147Z,12.60
2022-11-10T09:38:15.365Z,12.70
2022-11-10T09:40:48.214Z,12.80
2022-11-10T09:43:21.817Z,13.10
2022-11-10T09:45:53.673Z,13.10
2022-11-10T09:48:28.556Z,13.40
2022-11-10T09:51:04.287Z,13.40
2022-11-10T09:53:35.026Z,13.40
2022-11-10T09:56:06.889Z,13.30
2022-11-10T09:58:39.506Z,13.30
2022-11-10T10:01:25.469Z,13.40
2022-11-10T10:04:00.349Z,13.70
2022-11-10T10:06:33.997Z,13.90
2022-11-10T10:09:32.907Z,14.10
2022-11-10T10:12:23.208Z,14.30
2022-11-10T10:15:16.397Z,14.30
2022-11-10T10:18:07.652Z,14.30
2022-11-10T10:21:09.389Z,14.20
2022-11-10T10:24:07.797Z,14.00
2022-11-10T10:26:37.961Z,13.70
2022-11-10T10:29:11.300Z,13.60
2022-11-10T10:31:43.811Z,13.40
2022-11-10T10:34:19.950Z,13.30
2022-11-10T10:36:47.495Z,13.20
2022-11-10T10:39:21.188Z,13.20
2022-11-10T10:41:48.425Z,13.10
2022-11-10T10:44:18.274Z,13.20
2022-11-10T10:47:11.622Z,13.10
2022-11-10T10:49:38.821Z,13.10
2022-11-10T10:52:06.988Z,13.10
2022-11-10T10:54:38.344Z,13.20
2022-11-10T10:57:28.151Z,13.30
2022-11-10T11:00:18.715Z,13.30
2022-11-10T11:03:04.639Z,13.30
2022-11-10T11:05:32.568Z,13.20
2022-11-10T11:08:01.765Z,13.10
2022-11-10T11:10:36.536Z,13.20
2022-11-10T11:13:23.872Z,13.10
2022-11-10T11:16:02.517Z,13.10
2022-11-10T11:18:31.596Z,13.10
2022-11-10T11:21:20.722Z,13.20
2022-11-10T11:24:10.831Z,13.10
2022-11-10T11:26:59.744Z,13.00
2022-11-10T11:29:52.045Z,12.90
2022-11-10T11:32:52.624Z,12.90
2022-11-10T11:35:53.659Z,12.90
2022-11-10T11:38:38.958Z,12.90
2022-11-10T11:41:30.076Z,12.90
2022-11-10T11:44:10.702Z,12.90
2022-11-10T11:46:49.616Z,13.00
2022-11-10T11:49:46.185Z,13.00
2022-11-10T11:52:41.653Z,13.00
2022-11-10T11:55:18.833Z,12.90
2022-11-10T11:58:05.709Z,12.80
2022-11-10T12:00:45.179Z,12.90
2022-11-10T12:03:30.437Z,12.80
2022-11-10T12:06:16.168Z,12.90
2022-11-10T12:08:58.230Z,13.00
2022-11-10T12:11:49.767Z,13.00
2022-11-10T12:14:31.672Z,13.00
2022-11-10T12:17:29.997Z,12.90
2022-11-10T12:20:31.901Z,12.90
2022-11-10T12:23:34.185Z,12.90
2022-11-10T12:26:13.010Z,12.90
2022-11-10T12:28:45.541Z,13.00
2022-11-10T12:31:20.693Z,12.90
2022-11-10T12:33:53.108Z,13.10
2022-11-10T12:36:22.231Z,13.10
2022-11-10T12:39:24.003Z,13.00
2022-11-10T12:41:57.879Z,13.10
2022-11-10T12:44:33.853Z,13.10
2022-11-10T12:47:05.981Z,13.20
2022-11-10T12:49:40.727Z,13.30
2022-11-10T12:52:28.450Z,13.30
2022-11-10T12:54:55.686Z,13.30
2022-11-10T12:57:26.561Z,13.30
2022-11-10T13:00:02.014Z,13.20
2022-11-10T13:02:34.529Z,13.20
2022-11-10T13:05:23.454Z,13.10
2022-11-10T13:08:04.663Z,13.30
2022-11-10T13:10:31.943Z,13.30
2022-11-10T13:13:17.125Z,13.20
2022-11-10T13:15:45.897Z,13.20
2022-11-10T13:18:31.074Z,13.20
2022-11-10T13:20:59.546Z,13.30
2022-11-10T13:23:30.034Z,13.20
2022-11-10T13:26:11.127Z,13.20
2022-11-10T13:28:47.197Z,13.20
2022-11-10T13:31:30.998Z,13.30
2022-11-10T13:34:32.041Z,13.30
2022-11-10T13:36:59.712Z,13.20
2022-11-10T13:39:32.687Z,13.20
2022-11-10T13:42:04.357Z,13.20
2022-11-10T13:44:42.214Z,13.10
2022-11-10T13:47:09.280Z,13.10
2022-11-10T13:49:51.924Z,13.10
2022-11-10T13:52:56.713Z,13.10
2022-11-10T13:55:39.035Z,13.10
2022-11-10T13:58:23.318Z,13.20
2022-11-10T14:01:11.513Z,13.20
2022-11-10T14:03:47.818Z,13.10
2022-11-10T14:06:41.350Z,13.00
2022-11-10T14:09:33.483Z,13.10
2022-11-10T14:12:07.490Z,13.10
2022-11-10T14:15:00.338Z,13.00
2022-11-10T14:17:32.234Z,13.00
2022-11-10T14:20:00.182Z,13.00
2022-11-10T14:22:35.865Z,13.00
2022-11-10T14:25:20.711Z,13.00
2022-11-10T14:27:47.849Z,13.00
2022-11-10T14:30:26.548Z,12.90
2022-11-10T14:33:06.428Z,12.90
2022-11-10T14:35:45.333Z,12.90
2022-11-10T14:38:37.301Z,12.80
2022-11-10T14:41:06.582Z,12.70
2022-11-10T14:43:35.969Z,12.70
2022-11-10T14:46:05.143Z,12.60
2022-11-10T14:48:35.405Z,12.40
2022-11-10T14:51:20.654Z,12.40
2022-11-10T14:53:50.495Z,12.30
2022-11-10T14:56:22.274Z,12.30
2022-11-10T14:58:50.212Z,12.30
2022-11-10T15:01:38.966Z,12.20
2022-11-10T15:04:07.980Z,12.20
2022-11-10T15:06:35.956Z,12.20
2022-11-10T15:09:24.725Z,12.20
2022-11-10T15:11:54.929Z,12.20
2022-11-10T15:14:45.478Z,12.10
2022-11-10T15:17:15.593Z,12.00
2022-11-10T15:19:45.756Z,12.00
2022-11-10T15:22:12.860Z,11.90
2022-11-10T15:24:44.588Z,11.90
2022-11-10T15:27:27.052Z,11.90
2022-11-10T15:29:56.615Z,11.80
2022-11-10T15:32:34.435Z,11.70
2022-11-10T15:35:29.795Z,11.70
2022-11-10T15:38:01.281Z,11.70
2022-11-10T15:40:46.727Z,11.70
2022-11-10T15:43:13.821Z,11.70
2022-11-10T15:45:46.292Z,11.70
2022-11-10T15:48:15.849Z,11.70
2022-11-10T15:50:46.141Z,11.60
2022-11-10T15:53:15.961Z,11.40
2022-11-10T15:55:44.675Z,11.40
2022-11-10T15:58:22.945Z,11.30
2022-11-10T16:00:50.585Z,11.20
2022-11-10T16:03:21.390Z,11.10
2022-11-10T16:05:48.715Z,11.00
2022-11-10T16:08:18.569Z,11.00
2022-11-10T16:10:55.813Z,10.90
2022-11-10T16:13:26.633Z,10.70
2022-11-10T16:15:54.426Z,10.70
2022-11-10T16:18:23.960Z,10.50
2022-11-10T16:20:52.390Z,10.50
2022-11-10T16:23:19.632Z,10.40
2022-11-10T16:25:50.342Z,10.40
2022-11-10T16:28:23.609Z,10.20
2022-11-10T16:30:51.937Z,10.20
2022-11-10T16:33:22.159Z,10.10
2022-11-10T16:35:51.277Z,10.00
2022-11-10T16:38:31.967Z,10.00
2022-11-10T16:41:01.160Z,9.90
2022-11-10T16:43:30.968Z,9.90
2022-11-10T16:46:02.502Z,9.80
2022-11-10T16:48:35.474Z,9.70
2022-11-10T16:51:02.799Z,9.70
2022-11-10T16:53:31.861Z,9.70
2022-11-10T16:55:59.009Z,9.60
2022-11-10T16:58:28.098Z,9.50
2022-11-10T17:00:59.831Z,9.40
2022-11-10T17:03:44.777Z,9.40
2022-11-10T17:06:14.040Z,9.40
2022-11-10T17:08:42.258Z,9.30
2022-11-10T17:11:09.805Z,9.30
2022-11-10T17:13:37.332Z,9.30
2022-11-10T17:16:19.816Z,9.20
2022-11-10T17:18:47.483Z,9.20
2022-11-10T17:21:14.987Z,9.20
2022-11-10T17:23:42.470Z,9.10
2022-11-10T17:26:12.097Z,9.10
2022-11-10T17:28:39.303Z,9.00
2022-11-10T17:31:06.555Z,9.00
2022-11-10T17:33:33.861Z,9.00
2022-11-10T17:36:01.947Z,9.00
2022-11-10T17:38:31.639Z,9.00
2022-11-10T17:40:59.426Z,8.90
2022-11-10T17:43:26.625Z,8.90
2022-11-10T17:45:53.831Z,8.80
2022-11-10T17:48:21.291Z,8.70
2022-11-10T17:50:48.522Z,8.60
2022-11-10T17:53:19.602Z,8.60
2022-11-10T17:55:48.105Z,8.50
2022-11-10T17:58:16.216Z,8.50
2022-11-10T18:00:46.913Z,8.40
2022-11-10T18:03:15.881Z,8.40
2022-11-10T18:05:43.869Z,8.30
2022-11-10T18:08:12.454Z,8.30
2022-11-10T18:10:51.268Z,8.30
2022-11-10T18:13:18.885Z,8.30
2022-11-10T18:15:47.680Z,8.20
2022-11-10T18:18:16.428Z,8.10
2022-11-10T18:20:44.785Z,7.90
2022-11-10T18:23:12.757Z,7.80
2022-11-10T18:25:41.451Z,7.80
2022-11-10T18:28:12.278Z,7.60
2022-11-10T18:30:40.242Z,7.50
2022-11-10T18:33:07.609Z,7.50
2022-11-10T18:35:38.419Z,7.50
2022-11-10T18:38:07.009Z,7.50
2022-11-10T18:40:34.262Z,7.50
2022-11-10T18:43:06.135Z,7.50
2022-11-10T18:45:36.158Z,7.40
2022-11-10T18:48:04.300Z,7.40
2022-11-10T18:50:31.714Z,7.40
2022-11-10T18:52:58.852Z,7.40
2022-11-10T18:55:26.584Z,7.40
2022-11-10T18:57:53.831Z,7.30
2022-11-10T19:00:21.271Z,7.20
2022-11-10T19:02:48.828Z,7.20
2022-11-10T19:05:16.139Z,7.20
2022-11-10T19:07:43.388Z,6.80
2022-11-10T19:10:10.591Z,6.60
2022-11-10T19:12:37.877Z,6.60
2022-11-10T19:15:05.540Z,6.60
2022-11-10T19:17:32.725Z,6.70
2022-11-10T19:19:59.942Z,6.70
2022-11-10T19:22:27.175Z,6.80
2022-11-10T19:25:07.635Z,6.70
2022-11-10T19:27:36.207Z,6.70
2022-11-10T19:30:03.986Z,6.70
2022-11-10T19:32:31.211Z,6.70
2022-11-10T19:34:58.608Z,6.80
2022-11-10T19:37:28.572Z,6.80
2022-11-10T19:39:58.059Z,6.80
2022-11-10T19:42:25.183Z,6.80
2022-11-10T19:44:52.591Z,6.80
2022-11-10T19:47:19.711Z,6.80
2022-11-10T19:49:46.828Z,6.80
2022-11-10T19:52:13.936Z,6.80
2022-11-10T19:54:41.267Z,6.80
2022-11-10T19:57:08.430Z,6.70
2022-11-10T19:59:35.997Z,6.40
2022-11-10T20:02:03.679Z,6.40
2022-11-10T20:04:30.874Z,6.40
2022-11-10T20:07:16.767Z,6.30
2022-11-10T20:09:44.010Z,6.30
2022-11-10T20:12:11.241Z,6.30
2022-11-10T20:14:38.467Z,6.30
2022-11-10T20:17:05.644Z,6.30
2022-11-10T20:19:40.930Z,6.40
2022-11-10T20:22:08.490Z,6.40
2022-11-10T20:24:36.084Z,6.40
2022-11-10T20:27:03.329Z,6.30
2022-11-10T20:29:30.505Z,6.30
2022-11-10T20:31:57.634Z,6.10
2022-11-10T20:34:25.103Z,6.10
2022-11-10T20:36:54.995Z,6.10
2022-11-10T20:39:22.125Z,6.20
2022-11-10T20:41:50.890Z,6.10
2022-11-10T20:44:18.185Z,6.10
2022-11-10T20:46:54.613Z,6.00
2022-11-10T20:49:22.792Z,6.00
2022-11-10T20:51:49.928Z,5.90
2022-11-10T20:54:17.383Z,5.80
2022-11-10T20:56:44.543Z,5.70
2022-11-10T20:59:12.019Z,5.60
2022-11-10T21:01:39.321Z,5.50
2022-11-10T21:04:06.581Z,5.60
2022-11-10T21:06:33.970Z,5.60
2022-11-10T21:09:01.235Z,5.70
2022-11-10T21:11:47.168Z,5.70
2022-11-10T21:14:15.671Z,5.70
2022-11-10T21:16:42.860Z,5.60
2022-11-10T21:19:10.220Z,5.60
2022-11-10T21:21:37.377Z,5.50
2022-11-10T21:24:06.470Z,5.40
2022-11-10T21:26:35.614Z,5.40
2022-11-10T21:29:03.902Z,5.30
2022-11-10T21:31:31.221Z,5.30
2022-11-10T21:33:59.082Z,5.10
2022-11-10T21:36:29.308Z,5.10
2022-11-10T21:38:57.871Z,5.10
2022-11-10T21:41:25.919Z,5.30
2022-11-10T21:43:53.108Z,5.30
2022-11-10T21:46:20.852Z,5.30
2022-11-10T21:48:49.517Z,5.40
2022-11-10T21:51:16.783Z,5.50
2022-11-10T21:53:43.958Z,5.50
2022-11-10T21:56:12.175Z,5.40
2022-11-10T21:58:40.151Z,5.40
